メインページ
METAR-TAF:

METAR-TAF

空港 :

サギノー, ミシガン州, アメリカ合衆国

緯度: 43-31-58N, 経度: 084-04-46W, 海抜: 204m

現時点の気象観測

当レポートは1時間11分前の09:53(UTC)に作成
西の風 7kt
気温 -8°C
湿度 62%
気圧 1025 hPa
視程: 16.1km
高度3000ftの曇り

METAR: KMBS 230953Z AUTO 28007KT 10SM OVC030 M08/M14 A3028 RMK AO2 SLP265 T10781139

時間: 06:04 (11:04 UTC)

予報

当レポートは5時間41分前の05:23(UTC)に作成
予報は23日の 06時(UTC)から 24日の 06時(UTC)まで有効
西/北西の風 13kt
視程: 10km
高度4000ftの千切れ雲あり
23日の 1700時(UTC)から
西の風 7kt
視程: 10km
高度25000ftの千切れ雲あり
23日の 2300時(UTC)から
南西の風 5kt
視程: 10km
高度20000ftの曇り

TAF: KMBS 230523Z 2306/2406 30013KT P6SM BKN040 FM231700 26007KT P6SM BKN250 FM232300 22005KT P6SM OVC200

4,000以上の空港の気象観測と天気予報(METAR報とTAF報)

利用可能な観測所は地図上に黄色い丸と赤い丸で示す。

丸の上にカーソルを重ねると観測所名を参照できる。

次にクリックすると気象観測と天気予報を参照できる。

マップの切り替え:黒色「×」印の緑ボタンをクリックして拡大、「-」印の緑ボタンをクリックして縮小、緑色の三角印をクリックして隣りの地図に切り替え


METAR-TAF: